createdAt,value
2018-12-01T00:01:53.647Z,19.70
2018-12-01T00:04:27.013Z,19.80
2018-12-01T00:06:59.465Z,19.80
2018-12-01T00:09:33.224Z,19.80
2018-12-01T00:12:05.648Z,19.70
2018-12-01T00:14:38.640Z,19.70
2018-12-01T00:17:11.055Z,19.60
2018-12-01T00:19:45.255Z,19.50
2018-12-01T00:25:45.736Z,19.40
2018-12-01T00:28:17.993Z,19.40
2018-12-01T00:30:50.993Z,19.30
2018-12-01T00:33:23.171Z,19.40
2018-12-01T00:35:55.736Z,19.30
2018-12-01T00:38:27.911Z,19.30
2018-12-01T00:41:00.690Z,19.30
2018-12-01T00:47:04.088Z,19.30
2018-12-01T00:49:36.413Z,19.20
2018-12-01T00:55:30.908Z,18.90
2018-12-01T01:01:35.817Z,18.90
2018-12-01T01:04:08.818Z,18.90
2018-12-01T01:06:42.279Z,18.90
2018-12-01T01:09:15.659Z,18.90
2018-12-01T01:11:49.186Z,18.90
2018-12-01T01:14:22.027Z,19.00
2018-12-01T01:16:55.806Z,19.10
2018-12-01T01:19:28.765Z,19.10
2018-12-01T01:22:02.154Z,19.10
2018-12-01T01:24:35.571Z,19.00
2018-12-01T01:27:09.153Z,18.90
2018-12-01T01:29:41.998Z,18.80
2018-12-01T01:32:15.592Z,18.70
2018-12-01T01:34:48.529Z,18.70
2018-12-01T01:37:22.045Z,18.70
2018-12-01T01:39:54.889Z,18.80
2018-12-01T01:42:28.408Z,18.80
2018-12-01T01:45:01.290Z,18.80
2018-12-01T01:47:34.671Z,18.80
2018-12-01T01:50:08.972Z,18.80
2018-12-01T01:52:42.565Z,18.80
2018-12-01T01:55:16.137Z,18.90
2018-12-01T01:57:50.122Z,19.00
2018-12-01T02:00:24.633Z,19.00
2018-12-01T02:02:58.379Z,19.00
2018-12-01T02:05:32.379Z,18.90
2018-12-01T02:08:05.873Z,18.80
2018-12-01T02:10:38.662Z,18.70
2018-12-01T02:13:12.458Z,18.60
2018-12-01T02:15:45.172Z,18.60
2018-12-01T02:18:19.233Z,18.60
2018-12-01T02:20:52.009Z,18.70
2018-12-01T02:23:25.681Z,18.70
2018-12-01T02:25:58.480Z,18.80
2018-12-01T02:28:31.819Z,18.90
2018-12-01T02:34:25.767Z,18.80
2018-12-01T02:36:57.984Z,18.80
2018-12-01T02:39:30.292Z,18.70
2018-12-01T02:42:02.438Z,18.70
2018-12-01T02:44:43.999Z,18.70
2018-12-01T02:47:16.220Z,18.70
2018-12-01T02:49:48.991Z,18.70
2018-12-01T02:52:57.204Z,18.70
2018-12-01T02:55:30.404Z,18.60
2018-12-01T02:58:02.583Z,18.50
2018-12-01T03:01:19.515Z,18.50
2018-12-01T03:03:52.747Z,18.60
2018-12-01T03:06:25.254Z,18.50
2018-12-01T03:08:58.337Z,18.50
2018-12-01T03:11:30.827Z,18.40
2018-12-01T03:14:04.006Z,18.40
2018-12-01T03:16:36.493Z,18.40
2018-12-01T03:19:09.708Z,18.40
2018-12-01T03:21:42.185Z,18.30
2018-12-01T03:24:15.457Z,18.30
2018-12-01T03:26:47.862Z,18.30
2018-12-01T03:29:21.531Z,18.20
2018-12-01T03:31:54.014Z,18.20
2018-12-01T03:34:27.061Z,18.20
2018-12-01T03:36:59.545Z,18.20
2018-12-01T03:39:32.967Z,18.20
2018-12-01T03:42:05.510Z,18.20
2018-12-01T03:44:38.619Z,18.20
2018-12-01T03:47:11.111Z,18.20
2018-12-01T03:49:44.565Z,18.20
2018-12-01T03:52:17.073Z,18.20
2018-12-01T03:54:50.932Z,18.20
2018-12-01T03:57:23.423Z,18.20
2018-12-01T03:59:56.624Z,18.20
2018-12-01T04:02:29.157Z,18.20
2018-12-01T04:05:03.579Z,18.10
2018-12-01T04:07:36.331Z,18.00
2018-12-01T04:10:11.838Z,18.00
2018-12-01T04:12:46.502Z,18.00
2018-12-01T04:15:19.866Z,17.90
2018-12-01T04:17:52.934Z,17.90
2018-12-01T04:23:57.554Z,18.00
2018-12-01T04:26:29.893Z,18.00
2018-12-01T04:29:02.551Z,18.00
2018-12-01T04:31:34.841Z,18.00
2018-12-01T04:34:08.554Z,18.10
2018-12-01T04:36:44.053Z,18.00
2018-12-01T04:39:22.115Z,18.10
2018-12-01T04:41:54.346Z,18.10
2018-12-01T04:44:26.973Z,18.20
2018-12-01T04:46:59.562Z,18.20
2018-12-01T04:49:32.098Z,18.20
2018-12-01T04:52:04.654Z,18.20
2018-12-01T04:54:38.444Z,18.20
2018-12-01T04:57:10.766Z,18.20
2018-12-01T04:59:43.270Z,18.20
2018-12-01T05:02:15.635Z,18.20
2018-12-01T05:04:48.063Z,18.20
2018-12-01T05:07:22.153Z,18.20
2018-12-01T05:09:55.543Z,18.20
2018-12-01T05:12:27.866Z,18.10
2018-12-01T05:15:00.181Z,18.00
2018-12-01T05:17:33.651Z,18.00
2018-12-01T05:20:06.460Z,18.00
2018-12-01T05:22:38.776Z,18.00
2018-12-01T05:25:13.430Z,17.90
2018-12-01T05:27:46.763Z,17.80
2018-12-01T05:30:21.420Z,17.80
2018-12-01T05:32:53.798Z,17.80
2018-12-01T05:35:27.426Z,17.70
2018-12-01T05:37:59.859Z,17.80
2018-12-01T05:40:35.539Z,17.80
2018-12-01T05:43:08.623Z,17.80
2018-12-01T05:45:44.977Z,17.80
2018-12-01T05:48:20.217Z,17.80
2018-12-01T05:50:52.655Z,17.80
2018-12-01T05:53:25.143Z,17.70
2018-12-01T05:55:58.305Z,17.80
2018-12-01T06:01:52.894Z,17.80
2018-12-01T06:04:26.217Z,17.90
2018-12-01T06:07:00.675Z,18.00
2018-12-01T06:09:33.918Z,18.00
2018-12-01T06:12:07.755Z,18.00
2018-12-01T06:14:41.153Z,17.90
2018-12-01T06:17:14.494Z,17.80
2018-12-01T06:19:47.805Z,17.80
2018-12-01T06:22:20.880Z,17.80
2018-12-01T06:24:54.008Z,17.90
2018-12-01T06:27:27.348Z,17.90
2018-12-01T06:30:00.624Z,17.90
2018-12-01T06:32:34.099Z,18.00
2018-12-01T06:35:07.429Z,18.00
2018-12-01T06:37:40.605Z,18.00
2018-12-01T06:40:16.624Z,18.00
2018-12-01T06:42:49.926Z,17.90
2018-12-01T06:45:24.025Z,17.80
2018-12-01T06:47:57.317Z,17.80
2018-12-01T06:50:30.719Z,17.70
2018-12-01T06:53:04.123Z,17.80
2018-12-01T06:55:37.322Z,17.80
2018-12-01T06:58:10.547Z,17.80
2018-12-01T07:00:43.686Z,17.80
2018-12-01T07:03:16.809Z,17.80
2018-12-01T07:05:50.717Z,17.90
2018-12-01T07:08:23.892Z,17.90
2018-12-01T07:10:57.428Z,17.90
2018-12-01T07:13:30.623Z,17.90
2018-12-01T07:16:03.771Z,17.90
2018-12-01T07:18:45.807Z,17.90
2018-12-01T07:21:18.903Z,17.90
2018-12-01T07:23:52.088Z,17.90
2018-12-01T07:26:25.848Z,17.90
2018-12-01T07:28:58.944Z,17.90
2018-12-01T07:31:32.105Z,17.90
2018-12-01T07:34:05.525Z,17.80
2018-12-01T07:36:40.164Z,17.60
2018-12-01T07:39:13.874Z,17.50
2018-12-01T07:41:48.278Z,17.40
2018-12-01T07:44:21.728Z,17.30
2018-12-01T07:46:54.983Z,17.20
2018-12-01T07:49:28.342Z,17.20
2018-12-01T07:52:01.627Z,17.20
2018-12-01T07:54:34.766Z,17.10
2018-12-01T07:57:07.944Z,17.10
2018-12-01T07:59:40.994Z,17.10
2018-12-01T08:02:14.362Z,17.00
2018-12-01T08:04:47.421Z,17.00
2018-12-01T08:07:20.540Z,17.00
2018-12-01T08:09:53.625Z,17.00
2018-12-01T08:12:26.811Z,17.00
2018-12-01T08:14:59.841Z,16.90
2018-12-01T08:17:32.958Z,17.00
2018-12-01T08:20:06.131Z,16.90
2018-12-01T08:22:39.409Z,16.90
2018-12-01T08:25:26.672Z,16.80
2018-12-01T08:28:00.622Z,16.80
2018-12-01T08:30:36.021Z,16.90
2018-12-01T08:33:09.178Z,16.90
2018-12-01T08:35:42.571Z,17.00
2018-12-01T08:38:16.935Z,17.00
2018-12-01T08:40:50.131Z,17.00
2018-12-01T08:46:50.148Z,17.00
2018-12-01T08:49:23.097Z,17.00
2018-12-01T08:51:56.081Z,17.00
2018-12-01T08:54:28.988Z,17.00
2018-12-01T08:57:01.909Z,17.00
2018-12-01T08:59:34.904Z,17.00
2018-12-01T09:02:07.821Z,17.00
2018-12-01T09:04:40.832Z,17.00
2018-12-01T09:07:42.093Z,17.00
2018-12-01T09:10:15.335Z,17.00
2018-12-01T09:12:48.336Z,16.90
2018-12-01T09:15:21.288Z,17.00
2018-12-01T09:17:54.249Z,17.00
2018-12-01T09:20:27.274Z,17.00
2018-12-01T09:23:00.251Z,17.00
2018-12-01T09:25:33.287Z,17.00
2018-12-01T09:28:06.337Z,17.00
2018-12-01T09:30:40.849Z,17.00
2018-12-01T09:33:13.947Z,17.00
2018-12-01T09:35:47.609Z,17.00
2018-12-01T09:38:20.752Z,17.00
2018-12-01T09:40:53.902Z,17.00
2018-12-01T09:43:27.006Z,17.00
2018-12-01T09:46:00.055Z,17.00
2018-12-01T09:48:33.071Z,17.00
2018-12-01T09:51:06.100Z,16.90
2018-12-01T09:53:39.405Z,16.80
2018-12-01T09:56:12.551Z,16.60
2018-12-01T09:58:45.730Z,16.50
2018-12-01T10:01:18.791Z,16.40
2018-12-01T10:03:51.883Z,16.30
2018-12-01T10:06:24.867Z,16.20
2018-12-01T10:08:57.949Z,16.20
2018-12-01T10:11:31.042Z,16.10
2018-12-01T10:14:04.060Z,16.10
2018-12-01T10:16:37.354Z,16.10
2018-12-01T10:19:10.491Z,16.10
2018-12-01T10:21:43.718Z,16.10
2018-12-01T10:24:16.779Z,16.10
2018-12-01T10:26:49.811Z,16.10
2018-12-01T10:29:22.814Z,16.10
2018-12-01T10:35:28.156Z,16.00
2018-12-01T10:38:05.647Z,16.00
2018-12-01T10:40:39.428Z,16.00
2018-12-01T10:43:12.502Z,16.00
2018-12-01T10:45:45.493Z,16.00
2018-12-01T10:48:18.576Z,16.00
2018-12-01T10:50:51.491Z,15.90
2018-12-01T10:53:24.405Z,16.00
2018-12-01T10:59:17.861Z,15.90
2018-12-01T11:01:54.953Z,15.90
2018-12-01T11:04:31.864Z,15.90
2018-12-01T11:07:05.458Z,15.90
2018-12-01T11:09:38.100Z,15.90
2018-12-01T11:12:10.674Z,15.90
2018-12-01T11:14:43.290Z,15.80
2018-12-01T11:17:16.016Z,15.80
2018-12-01T11:19:48.616Z,15.70
2018-12-01T11:22:21.524Z,15.70
2018-12-01T11:24:54.488Z,15.70
2018-12-01T11:27:27.441Z,15.60
2018-12-01T11:30:00.003Z,15.70
2018-12-01T11:32:32.496Z,15.70
2018-12-01T11:35:05.249Z,15.60
2018-12-01T11:37:37.890Z,15.60
2018-12-01T11:40:13.686Z,15.60
2018-12-01T11:42:46.706Z,15.50
2018-12-01T11:45:20.102Z,15.50
2018-12-01T11:47:52.664Z,15.50
2018-12-01T11:50:25.575Z,15.40
2018-12-01T11:53:01.631Z,15.40
2018-12-01T11:55:34.397Z,15.40
2018-12-01T11:58:07.916Z,15.40
2018-12-01T12:00:43.000Z,15.40
2018-12-01T12:03:25.060Z,15.40
2018-12-01T12:06:04.457Z,15.50
2018-12-01T12:08:44.258Z,15.50
2018-12-01T12:11:22.184Z,15.40
2018-12-01T12:13:59.179Z,15.40
2018-12-01T12:16:32.180Z,15.50
2018-12-01T12:19:04.813Z,15.50
2018-12-01T12:21:37.403Z,15.50
2018-12-01T12:24:10.111Z,15.50
2018-12-01T12:26:42.651Z,15.50
2018-12-01T12:29:15.248Z,15.50
2018-12-01T12:31:48.337Z,15.50
2018-12-01T12:34:20.834Z,15.60
2018-12-01T12:36:53.315Z,15.80
2018-12-01T12:39:26.007Z,16.00
2018-12-01T12:41:58.856Z,16.10
2018-12-01T12:48:02.991Z,16.30
2018-12-01T12:50:36.004Z,16.30
2018-12-01T12:53:09.789Z,16.30
2018-12-01T12:55:42.705Z,16.30
2018-12-01T12:58:16.470Z,16.60
2018-12-01T13:00:49.457Z,17.20
2018-12-01T13:03:22.454Z,17.60
2018-12-01T13:05:55.454Z,17.90
2018-12-01T13:08:28.509Z,18.10
2018-12-01T13:11:01.499Z,18.40
2018-12-01T13:13:34.701Z,18.70
2018-12-01T13:16:07.796Z,18.80
2018-12-01T13:18:41.675Z,19.20
2018-12-01T13:21:14.935Z,19.70
2018-12-01T13:23:48.125Z,20.00
2018-12-01T13:26:22.537Z,20.40
2018-12-01T13:28:55.519Z,20.10
2018-12-01T13:31:29.068Z,20.00
2018-12-01T13:34:02.035Z,20.00
2018-12-01T13:36:35.644Z,20.30
2018-12-01T13:39:10.755Z,20.40
2018-12-01T13:41:43.862Z,20.30
2018-12-01T13:44:17.289Z,20.10
2018-12-01T13:46:50.403Z,20.00
2018-12-01T13:49:23.481Z,20.20
2018-12-01T13:51:57.536Z,20.10
2018-12-01T13:54:30.335Z,20.40
2018-12-01T13:57:03.388Z,20.60
2018-12-01T13:59:36.404Z,20.40
2018-12-01T14:02:09.824Z,21.00
2018-12-01T14:04:42.874Z,21.40
2018-12-01T14:07:18.469Z,21.60
2018-12-01T14:09:52.477Z,21.80
2018-12-01T14:12:25.560Z,21.40
2018-12-01T14:14:58.431Z,21.30
2018-12-01T14:17:31.390Z,21.00
2018-12-01T14:20:04.226Z,21.00
2018-12-01T14:22:39.410Z,21.50
2018-12-01T14:31:54.301Z,21.40
2018-12-01T14:37:59.957Z,21.80
2018-12-01T14:40:32.606Z,22.00
2018-12-01T14:43:05.246Z,21.90
2018-12-01T14:45:37.906Z,21.90
2018-12-01T14:48:10.757Z,21.80
2018-12-01T14:50:48.325Z,21.80
2018-12-01T14:53:17.842Z,21.80
2018-12-01T14:59:11.821Z,21.60
2018-12-01T15:05:05.524Z,22.10
2018-12-01T15:07:38.166Z,22.60
2018-12-01T15:10:19.387Z,22.60
2018-12-01T15:12:52.329Z,23.00
2018-12-01T15:15:28.080Z,22.60
2018-12-01T15:18:00.681Z,22.30
2018-12-01T15:20:33.274Z,23.40
2018-12-01T15:23:05.902Z,23.90
2018-12-01T15:25:38.467Z,23.80
2018-12-01T15:28:11.125Z,23.30
2018-12-01T15:30:43.707Z,22.90
2018-12-01T15:33:18.502Z,22.50
2018-12-01T15:35:51.240Z,22.30
2018-12-01T15:38:23.939Z,22.40
2018-12-01T15:40:57.193Z,22.40
2018-12-01T15:43:30.021Z,22.60
2018-12-01T15:46:02.605Z,22.60
2018-12-01T15:48:35.325Z,22.40
2018-12-01T15:51:08.787Z,22.70
2018-12-01T15:53:41.630Z,23.10
2018-12-01T15:56:16.840Z,23.60
2018-12-01T15:58:49.436Z,23.80
2018-12-01T16:01:22.441Z,23.60
2018-12-01T16:03:56.591Z,23.50
2018-12-01T16:06:38.069Z,23.30
2018-12-01T16:09:19.184Z,23.90
2018-12-01T16:11:58.183Z,24.30
2018-12-01T16:14:30.955Z,23.80
2018-12-01T16:17:03.992Z,23.50
2018-12-01T16:19:36.599Z,23.60
2018-12-01T16:22:09.930Z,23.50
2018-12-01T16:24:42.591Z,23.60
2018-12-01T16:27:15.192Z,23.90
2018-12-01T16:29:47.770Z,23.90
2018-12-01T16:32:20.795Z,24.30
2018-12-01T16:34:53.728Z,24.20
2018-12-01T16:37:26.309Z,23.90
2018-12-01T16:39:59.132Z,24.00
2018-12-01T16:42:31.894Z,24.40
2018-12-01T16:45:05.090Z,24.60
2018-12-01T16:47:37.720Z,24.60
2018-12-01T16:53:32.895Z,24.50
2018-12-01T16:56:05.725Z,25.10
2018-12-01T16:58:39.033Z,25.10
2018-12-01T17:01:12.063Z,25.20
2018-12-01T17:03:46.724Z,25.10
2018-12-01T17:06:24.072Z,24.40
2018-12-01T17:12:18.549Z,24.30
2018-12-01T17:14:50.751Z,24.80
2018-12-01T17:17:23.067Z,25.00
2018-12-01T17:19:56.747Z,25.00
2018-12-01T17:22:29.727Z,25.20
2018-12-01T17:25:02.018Z,24.40
2018-12-01T17:27:34.730Z,24.70
2018-12-01T17:33:38.833Z,24.40
2018-12-01T17:36:11.250Z,24.50
2018-12-01T17:38:45.209Z,25.00
2018-12-01T17:41:26.179Z,25.10
2018-12-01T17:44:04.279Z,25.70
2018-12-01T17:46:37.047Z,24.70
2018-12-01T17:49:11.380Z,25.20
2018-12-01T17:55:06.879Z,25.30
2018-12-01T17:58:11.622Z,25.20
2018-12-01T18:00:45.481Z,24.60
2018-12-01T18:07:10.143Z,24.90
2018-12-01T18:09:43.413Z,25.50
2018-12-01T18:12:16.408Z,25.40
2018-12-01T18:14:49.449Z,25.20
2018-12-01T18:17:22.316Z,25.30
2018-12-01T18:19:55.964Z,25.40
2018-12-01T18:22:31.391Z,24.90
2018-12-01T18:25:05.112Z,24.80
2018-12-01T18:27:38.601Z,25.10
2018-12-01T18:30:17.890Z,25.70
2018-12-01T18:32:51.823Z,25.60
2018-12-01T18:35:24.830Z,25.40
2018-12-01T18:37:57.605Z,24.90
2018-12-01T18:40:30.375Z,24.90
2018-12-01T18:43:03.673Z,25.20
2018-12-01T18:45:36.647Z,25.70
2018-12-01T18:48:09.641Z,25.60
2018-12-01T18:50:43.238Z,25.30
2018-12-01T18:56:38.478Z,25.50
2018-12-01T18:59:14.243Z,25.70
2018-12-01T19:01:48.526Z,25.70
2018-12-01T19:04:26.355Z,24.90
2018-12-01T19:07:00.475Z,24.60
2018-12-01T19:09:34.285Z,24.80
2018-12-01T19:12:13.047Z,24.50
2018-12-01T19:17:27.484Z,24.80
2018-12-01T19:20:03.551Z,24.80
2018-12-01T19:22:38.646Z,24.70
2018-12-01T19:27:54.979Z,24.90
2018-12-01T19:30:29.575Z,24.30
2018-12-01T19:35:56.972Z,25.10
2018-12-01T19:38:32.161Z,25.10
2018-12-01T19:41:06.390Z,25.10
2018-12-01T19:43:39.544Z,25.10
2018-12-01T19:49:35.169Z,25.30
2018-12-01T19:52:31.956Z,24.90
2018-12-01T19:55:06.317Z,25.00
2018-12-01T19:57:47.235Z,24.80
2018-12-01T20:00:27.307Z,24.20
2018-12-01T20:03:02.113Z,24.20
2018-12-01T20:05:37.743Z,24.50
2018-12-01T20:08:11.079Z,24.90
2018-12-01T20:14:17.609Z,24.90
2018-12-01T20:20:21.535Z,24.10
2018-12-01T20:26:15.741Z,24.00
2018-12-01T20:28:48.382Z,23.80
2018-12-01T20:31:22.662Z,23.70
2018-12-01T20:33:56.812Z,23.90
2018-12-01T20:36:34.414Z,24.20
2018-12-01T20:39:17.305Z,24.50
2018-12-01T20:41:51.021Z,24.40
2018-12-01T20:44:26.240Z,23.70
2018-12-01T20:46:59.509Z,23.70
2018-12-01T20:49:32.206Z,23.30
2018-12-01T20:52:05.690Z,23.30
2018-12-01T20:54:42.319Z,23.30
2018-12-01T20:57:23.722Z,23.20
2018-12-01T20:59:56.417Z,23.50
2018-12-01T21:02:29.980Z,23.60
2018-12-01T21:05:02.714Z,23.50
2018-12-01T21:07:35.856Z,23.60
2018-12-01T21:10:11.516Z,23.50
2018-12-01T21:12:44.879Z,23.60
2018-12-01T21:15:17.846Z,23.50
2018-12-01T21:17:50.499Z,23.50
2018-12-01T21:20:23.222Z,23.30
2018-12-01T21:22:56.715Z,23.50
2018-12-01T21:25:31.120Z,23.30
2018-12-01T21:28:05.402Z,23.10
2018-12-01T21:30:38.181Z,23.10
2018-12-01T21:33:18.728Z,23.30
2018-12-01T21:35:52.846Z,23.00
2018-12-01T21:38:26.211Z,22.70
2018-12-01T21:41:04.972Z,23.10
2018-12-01T21:46:59.478Z,22.50
2018-12-01T21:49:31.987Z,22.50
2018-12-01T21:52:04.382Z,22.80
2018-12-01T21:54:36.879Z,22.50
2018-12-01T21:57:09.356Z,22.60
2018-12-01T21:59:41.852Z,22.60
2018-12-01T22:02:14.203Z,22.20
2018-12-01T22:04:47.594Z,22.10
2018-12-01T22:10:41.449Z,21.80
2018-12-01T22:13:13.972Z,21.50
2018-12-01T22:15:47.228Z,21.50
2018-12-01T22:18:19.751Z,21.40
2018-12-01T22:20:52.772Z,21.50
2018-12-01T22:23:25.192Z,21.20
2018-12-01T22:25:58.157Z,21.50
2018-12-01T22:28:35.326Z,21.30
2018-12-01T22:34:25.064Z,21.20
2018-12-01T22:36:57.547Z,20.80
2018-12-01T22:39:30.340Z,20.70
2018-12-01T22:42:04.615Z,20.70
2018-12-01T22:44:37.911Z,20.70
2018-12-01T22:47:10.423Z,20.50
2018-12-01T22:49:43.240Z,20.30
2018-12-01T22:52:15.823Z,20.10
2018-12-01T22:54:48.262Z,20.00
2018-12-01T22:57:20.779Z,19.90
2018-12-01T22:59:53.246Z,19.90
2018-12-01T23:02:25.784Z,19.90
2018-12-01T23:05:00.747Z,19.90
2018-12-01T23:07:34.506Z,19.90
2018-12-01T23:10:22.849Z,19.80
2018-12-01T23:12:55.494Z,19.60
2018-12-01T23:15:32.638Z,19.50
2018-12-01T23:18:05.932Z,19.50
2018-12-01T23:20:41.787Z,19.40
2018-12-01T23:23:22.425Z,19.50
2018-12-01T23:26:03.830Z,19.50
2018-12-01T23:28:40.196Z,19.30
2018-12-01T23:31:23.838Z,19.30
2018-12-01T23:33:57.651Z,19.10
2018-12-01T23:39:29.604Z,19.10
2018-12-01T23:42:06.175Z,19.10
2018-12-01T23:44:39.976Z,19.10
2018-12-01T23:47:22.025Z,19.00
2018-12-01T23:53:21.357Z,18.90
2018-12-01T23:55:55.261Z,19.00
2018-12-01T23:58:29.876Z,18.90
